Time;durP1;ratioP1;P1;durP2;ratioP2;P2;SDS_P1;SDS_P2;PMS_P1;PMS_P2;Temp;Humidity;BMP_temperature;BMP_pressure;BME280_temperature;BME280_humidity;BME280_pressure;Samples;Min_cycle;Max_cycle;Signal;HPM_P1;HPM_P2
2020/12/17 00:01:59;;;;;;;101.10;44.17;;;;;;;5.42;82.56;101061.25;126203;1098;23776;-55
2020/12/17 00:04:28;;;;;;;96.25;43.30;;;;;;;5.42;82.60;101061.25;126396;1098;27825;-56
2020/12/17 00:06:58;;;;;;;98.80;45.23;;;;;;;5.42;82.27;101054.95;126340;1098;23299;-56
2020/12/17 00:09:27;;;;;;;93.27;41.33;;;;;;;5.42;82.66;101057.72;126178;1098;25036;-55
2020/12/17 00:11:57;;;;;;;94.93;41.27;;;;;;;5.41;82.62;101056.14;126479;1098;26454;-57
2020/12/17 00:14:26;;;;;;;93.17;40.40;;;;;;;5.43;82.81;101056.50;126127;1098;23350;-57
2020/12/17 00:16:55;;;;;;;97.90;43.33;;;;;;;5.42;82.74;101058.48;126259;1098;23466;-57
2020/12/17 00:19:25;;;;;;;90.63;40.53;;;;;;;5.45;82.74;101052.10;126088;1099;25049;-56
2020/12/17 00:21:55;;;;;;;93.30;38.57;;;;;;;5.46;82.73;101050.87;126199;1098;23310;-55
2020/12/17 00:24:24;;;;;;;94.22;41.83;;;;;;;5.48;82.53;101054.01;126045;1098;23347;-57
2020/12/17 00:26:53;;;;;;;94.70;43.90;;;;;;;5.47;82.76;101058.00;126089;1098;23297;-55
2020/12/17 00:29:22;;;;;;;99.47;44.57;;;;;;;5.47;82.74;101049.69;126232;1098;23334;-57
2020/12/17 00:31:54;;;;;;;93.70;42.63;;;;;;;5.48;82.79;101058.78;126009;1099;28352;-57
2020/12/17 00:34:23;;;;;;;97.35;42.15;;;;;;;5.47;82.51;101052.46;126094;1098;23427;-57
2020/12/17 00:36:56;;;;;;;88.12;38.45;;;;;;;5.46;82.55;101055.66;126094;1098;23362;-58
2020/12/17 00:39:25;;;;;;;92.30;40.27;;;;;;;5.45;82.71;101052.10;126083;1098;23372;-56
2020/12/17 00:41:54;;;;;;;94.25;40.28;;;;;;;5.43;82.71;101046.20;126235;1098;27846;-54
2020/12/17 00:44:23;;;;;;;96.17;39.67;;;;;;;5.43;82.66;101051.75;126099;1098;23358;-57
2020/12/17 00:46:55;;;;;;;86.07;40.77;;;;;;;5.45;82.76;101054.88;126127;1098;23516;-56
2020/12/17 00:49:25;;;;;;;93.90;44.13;;;;;;;5.46;82.72;101045.34;126069;1098;23395;-57
2020/12/17 00:52:00;;;;;;;94.83;44.43;;;;;;;5.48;82.85;101047.71;126087;1098;23352;-57
2020/12/17 00:54:30;;;;;;;86.90;41.80;;;;;;;5.47;82.71;101043.36;126082;1098;23750;-57
2020/12/17 00:56:59;;;;;;;88.27;40.48;;;;;;;5.45;82.81;101038.26;126465;1098;26808;-57
2020/12/17 00:59:28;;;;;;;88.65;40.80;;;;;;;5.42;82.71;101039.09;126310;1098;23406;-58
2020/12/17 01:01:57;;;;;;;96.77;40.90;;;;;;;5.41;82.94;101045.85;126474;1098;24644;-57
2020/12/17 01:04:27;;;;;;;102.57;41.93;;;;;;;5.42;82.94;101038.33;126133;1098;28400;-57
2020/12/17 01:06:56;;;;;;;90.37;41.53;;;;;;;5.42;82.92;101036.32;126112;1098;23376;-56
2020/12/17 01:09:25;;;;;;;89.17;43.57;;;;;;;5.43;82.96;101039.88;126104;1098;25096;-56
2020/12/17 01:11:56;;;;;;;93.50;43.47;;;;;;;5.42;83.06;101033.55;126565;1098;27813;-55
2020/12/17 01:14:26;;;;;;;94.60;43.35;;;;;;;5.42;83.06;101036.32;126119;1098;23463;-56
2020/12/17 01:16:55;;;;;;;95.00;41.17;;;;;;;5.44;82.58;101024.84;126111;1098;23322;-55
2020/12/17 01:19:24;;;;;;;91.40;40.27;;;;;;;5.44;83.12;101024.84;126029;1098;23388;-57
2020/12/17 01:21:53;;;;;;;85.90;39.65;;;;;;;5.42;83.02;101030.03;126130;1098;26657;-57
2020/12/17 01:24:22;;;;;;;91.73;40.20;;;;;;;5.42;82.81;101030.78;126217;1098;23477;-57
2020/12/17 01:26:53;;;;;;;95.47;38.90;;;;;;;5.45;82.93;101026.39;126212;1098;23372;-57
2020/12/17 01:29:23;;;;;;;93.33;41.10;;;;;;;5.44;82.76;101028.38;126144;1098;23372;-57
2020/12/17 01:31:56;;;;;;;91.00;40.20;;;;;;;5.43;82.61;101029.59;126648;1098;23497;-56
2020/12/17 01:34:25;;;;;;;94.60;40.45;;;;;;;5.43;82.86;101035.13;126064;1090;30559;-57
2020/12/17 01:36:55;;;;;;;89.30;40.80;;;;;;;5.42;82.82;101027.26;126206;1098;23807;-54
2020/12/17 01:39:25;;;;;;;95.53;39.03;;;;;;;5.41;82.75;101031.22;126029;1098;23523;-56
2020/12/17 01:41:56;;;;;;;86.80;37.10;;;;;;;5.41;83.03;101032.01;126484;1098;23372;-56
2020/12/17 01:44:25;;;;;;;86.32;38.45;;;;;;;5.40;82.79;101019.35;126143;1098;23376;-57
2020/12/17 01:46:55;;;;;;;96.67;39.47;;;;;;;5.39;82.57;101022.55;126100;1098;26823;-55
2020/12/17 01:49:26;;;;;;;81.87;38.15;;;;;;;5.38;83.07;101024.53;126062;1098;23373;-56
2020/12/17 01:51:56;;;;;;;92.10;41.87;;;;;;;5.38;82.90;101016.23;126123;1098;23376;-57
2020/12/17 01:54:25;;;;;;;94.50;42.55;;;;;;;5.40;83.06;101013.05;126006;1098;26812;-58
2020/12/17 01:57:00;;;;;;;95.80;45.17;;;;;;;5.40;82.61;101015.83;125976;1098;23348;-57
2020/12/17 01:59:35;;;;;;;100.47;44.30;;;;;;;5.37;82.71;101020.22;125973;1098;23433;-55
2020/12/17 02:02:05;;;;;;;93.43;41.87;;;;;;;5.33;82.89;101019.51;125926;1098;23517;-57
2020/12/17 02:04:34;;;;;;;98.80;43.57;;;;;;;5.34;82.81;101021.05;126801;1098;23440;-54
2020/12/17 02:07:06;;;;;;;93.57;41.80;;;;;;;5.36;82.90;101017.88;126142;1098;25262;-54
2020/12/17 02:09:35;;;;;;;95.83;41.20;;;;;;;5.36;82.60;101015.12;126092;1098;23333;-55
2020/12/17 02:12:04;;;;;;;91.50;41.27;;;;;;;5.33;82.80;101013.18;126037;1090;27898;-56
2020/12/17 02:14:33;;;;;;;98.00;41.03;;;;;;;5.28;82.97;101019.98;126060;1098;23318;-54
2020/12/17 02:17:03;;;;;;;92.60;38.00;;;;;;;5.27;82.62;101021.20;126036;1099;23468;-56
2020/12/17 02:19:32;;;;;;;95.05;40.17;;;;;;;5.28;83.29;101024.73;126058;1098;23310;-57
2020/12/17 02:22:04;;;;;;;88.00;40.10;;;;;;;5.27;82.79;101026.74;126046;1098;26376;-56
2020/12/17 02:24:34;;;;;;;87.73;40.10;;;;;;;5.23;82.84;101031.56;126267;1098;23372;-56
2020/12/17 02:27:03;;;;;;;87.80;38.47;;;;;;;5.24;83.22;101026.79;126121;1098;23375;-56
2020/12/17 02:29:32;;;;;;;85.60;36.87;;;;;;;5.22;82.76;101027.22;126341;1098;25184;-54
2020/12/17 02:32:04;;;;;;;92.20;38.27;;;;;;;5.21;82.97;101030.42;125899;1097;23322;-56
2020/12/17 02:34:33;;;;;;;75.23;34.60;;;;;;;5.17;82.71;101024.95;126399;1098;27925;-55
2020/12/17 02:37:02;;;;;;;81.70;35.90;;;;;;;5.15;82.79;101019.06;126106;1097;24852;-57
2020/12/17 02:39:33;;;;;;;80.90;35.93;;;;;;;5.14;82.77;101016.70;126203;1098;23356;-57
2020/12/17 02:42:03;;;;;;;80.55;36.05;;;;;;;5.15;82.97;101015.51;126151;1098;23470;-54
2020/12/17 02:44:32;;;;;;;74.67;33.87;;;;;;;5.16;82.87;101009.54;126205;1098;23817;-55
2020/12/17 02:47:01;;;;;;;85.43;38.57;;;;;;;5.20;82.97;101009.47;126006;1098;23379;-56
2020/12/17 02:49:30;;;;;;;82.07;37.33;;;;;;;5.19;82.76;101010.69;126136;1098;23375;-54
2020/12/17 02:52:00;;;;;;;82.93;36.23;;;;;;;5.16;82.78;101012.31;126022;1098;23383;-56
2020/12/17 02:54:30;;;;;;;77.25;37.65;;;;;;;5.13;82.91;101013.14;126157;1098;23302;-56
2020/12/17 02:56:59;;;;;;;77.80;34.75;;;;;;;5.09;82.64;101015.19;126627;1098;23326;-56
2020/12/17 02:59:29;;;;;;;71.10;34.43;;;;;;;5.07;82.95;101022.38;126048;1098;23757;-57
2020/12/17 03:01:57;;;;;;;72.97;35.20;;;;;;;5.06;82.65;101029.11;126130;1098;23318;-57
2020/12/17 03:04:27;;;;;;;78.77;34.60;;;;;;;5.07;83.29;101027.91;126054;1098;23372;-57
2020/12/17 03:06:56;;;;;;;79.77;34.07;;;;;;;5.06;82.90;101021.59;126089;1098;23372;-56
2020/12/17 03:09:26;;;;;;;77.45;35.15;;;;;;;5.06;82.66;101026.34;126041;1098;23379;-55
2020/12/17 03:11:55;;;;;;;80.70;37.30;;;;;;;5.06;83.13;101018.82;126135;1098;26782;-56
2020/12/17 03:14:24;;;;;;;79.10;35.83;;;;;;;5.07;83.03;101023.14;126042;1098;23368;-56
2020/12/17 03:16:53;;;;;;;82.67;37.43;;;;;;;5.09;82.91;101017.20;126023;1098;23751;-55
2020/12/17 03:19:22;;;;;;;77.30;35.07;;;;;;;5.12;82.97;101019.90;125998;1098;23315;-55
2020/12/17 03:21:53;;;;;;;77.07;35.13;;;;;;;5.14;82.94;101025.80;125993;1098;26430;-56
2020/12/17 03:24:22;;;;;;;73.57;37.37;;;;;;;5.13;82.72;101032.52;126041;1098;23310;-57
2020/12/17 03:26:51;;;;;;;80.80;38.10;;;;;;;5.14;82.84;101033.30;125990;1098;23313;-55
2020/12/17 03:29:21;;;;;;;81.10;40.80;;;;;;;5.14;82.97;101031.33;126055;1098;23373;-57
2020/12/17 03:31:50;;;;;;;82.85;39.58;;;;;;;5.15;82.86;101029.34;125981;1098;26830;-58
2020/12/17 03:34:20;;;;;;;85.73;38.60;;;;;;;5.14;82.89;101030.53;126029;1098;23382;-56
2020/12/17 03:36:52;;;;;;;74.67;36.27;;;;;;;5.14;83.05;101027.77;125983;1098;23422;-57
2020/12/17 03:39:21;;;;;;;80.55;37.38;;;;;;;5.14;83.08;101022.23;126180;1098;23314;-57
2020/12/17 03:41:50;;;;;;;83.10;41.50;;;;;;;5.15;82.71;101016.30;126153;1098;23372;-57
2020/12/17 03:44:20;;;;;;;85.20;41.97;;;;;;;5.17;82.91;101015.87;125988;1098;27764;-55
2020/12/17 03:46:49;;;;;;;82.93;41.50;;;;;;;5.16;82.38;101015.08;126153;1098;23379;-55
2020/12/17 03:49:18;;;;;;;80.70;39.37;;;;;;;5.15;82.91;101007.99;126145;1098;23320;-54
2020/12/17 03:51:48;;;;;;;81.73;35.07;;;;;;;5.16;82.70;101017.84;126158;1098;23318;-57
2020/12/17 03:54:17;;;;;;;80.75;37.80;;;;;;;5.17;82.90;101010.33;126268;1098;23520;-55
2020/12/17 03:56:47;;;;;;;71.30;34.27;;;;;;;5.15;82.67;101007.99;126040;1098;23375;-57
2020/12/17 03:59:16;;;;;;;75.37;36.68;;;;;;;5.16;82.49;101000.45;126735;1093;23324;-55
2020/12/17 04:01:48;;;;;;;77.67;35.73;;;;;;;5.18;82.45;101004.36;126246;1098;26750;-56
2020/12/17 04:04:18;;;;;;;77.90;36.33;;;;;;;5.18;82.84;101004.36;126284;1098;23401;-53
2020/12/17 04:06:49;;;;;;;76.83;37.03;;;;;;;5.14;82.37;100992.58;126491;1098;23425;-55
2020/12/17 04:09:18;;;;;;;77.77;37.17;;;;;;;5.13;82.83;100988.23;126300;1098;23336;-56
2020/12/17 04:11:47;;;;;;;81.87;35.47;;;;;;;5.12;82.62;100985.89;126269;1098;23394;-52
2020/12/17 04:14:16;;;;;;;85.77;37.37;;;;;;;5.08;82.66;100980.44;126648;1098;26763;-53
2020/12/17 04:16:46;;;;;;;69.17;33.03;;;;;;;5.06;82.54;100968.22;127919;1098;23395;-52
2020/12/17 04:19:15;;;;;;;77.10;35.60;;;;;;;5.04;82.72;100967.86;126700;1098;23429;-55
2020/12/17 04:21:44;;;;;;;76.40;33.17;;;;;;;5.03;82.63;100967.08;126263;1098;23324;-54
2020/12/17 04:24:13;;;;;;;81.17;37.97;;;;;;;5.03;82.50;100967.08;126612;1098;23526;-54
2020/12/17 04:26:47;;;;;;;82.93;37.97;;;;;;;5.04;82.82;100965.09;126262;1098;23326;-55
2020/12/17 04:29:17;;;;;;;81.43;38.30;;;;;;;5.03;82.72;100971.85;126273;1093;29391;-55
2020/12/17 04:31:46;;;;;;;78.70;35.10;;;;;;;5.01;82.74;100977.79;126247;1098;23307;-54
2020/12/17 04:34:17;;;;;;;82.33;34.83;;;;;;;4.99;82.69;100971.89;126306;1098;25093;-54
2020/12/17 04:36:45;;;;;;;;;;;;;;;4.98;82.64;100975.88;126323;1093;26402;-54
2020/12/17 04:39:14;;;;;;;79.40;34.60;;;;;;;4.98;82.81;100972.33;126255;1098;24481;-55
2020/12/17 04:41:46;;;;;;;78.37;35.67;;;;;;;4.96;82.60;100978.30;126258;1098;23425;-52
2020/12/17 04:44:16;;;;;;;80.00;36.70;;;;;;;4.94;82.44;100983.47;126417;1098;25129;-54
2020/12/17 04:46:55;;;;;;;80.77;37.87;;;;;;;4.94;82.65;100991.77;126529;1098;23441;-51
2020/12/17 04:49:32;;;;;;;86.10;39.85;;;;;;;4.97;82.52;100990.12;126437;1093;23330;-55
2020/12/17 04:52:02;;;;;;;82.20;38.10;;;;;;;4.98;82.85;100991.70;126255;1098;23391;-55
2020/12/17 04:54:32;;;;;;;81.05;39.40;;;;;;;4.94;82.61;100984.23;126282;1098;23364;-51
2020/12/17 04:57:09;;;;;;;79.90;38.17;;;;;;;4.92;82.53;100985.87;126288;1099;23391;-52
2020/12/17 04:59:56;;;;;;;79.20;35.75;;;;;;;4.89;82.43;100981.17;126389;1098;26756;-55
2020/12/17 05:02:26;;;;;;;83.00;36.37;;;;;;;4.87;82.52;100972.52;127511;1098;23321;-54
2020/12/17 05:04:56;;;;;;;71.27;33.03;;;;;;;4.85;82.39;100961.09;127208;1093;23377;-55
2020/12/17 05:07:26;;;;;;;78.80;36.67;;;;;;;4.84;82.23;100971.38;126687;1098;23376;-54
2020/12/17 05:09:55;;;;;;;70.23;35.17;;;;;;;4.82;82.29;100973.78;126250;1098;23379;-52
2020/12/17 05:12:24;;;;;;;71.60;34.50;;;;;;;4.84;82.13;100973.38;126203;1098;26749;-56
2020/12/17 05:14:57;;;;;;;67.20;33.47;;;;;;;4.81;82.25;100975.00;126224;1098;27818;-55
2020/12/17 05:17:26;;;;;;;69.33;33.73;;;;;;;4.77;82.11;100977.05;126358;1098;23378;-56
2020/12/17 05:19:59;;;;;;;72.87;32.23;;;;;;;4.75;82.27;100981.43;126287;1098;23462;-56
2020/12/17 05:22:29;;;;;;;71.55;32.80;;;;;;;4.73;82.17;100978.30;127068;1098;23495;-54
2020/12/17 05:24:59;;;;;;;71.90;32.80;;;;;;;4.71;81.99;100983.48;126253;1098;23326;-54
2020/12/17 05:27:30;;;;;;;63.10;30.23;;;;;;;4.69;82.31;100983.12;126818;1098;23418;-55
2020/12/17 05:30:00;;;;;;;72.87;33.30;;;;;;;4.69;82.07;100983.91;126902;1098;23379;-52
2020/12/17 05:32:29;;;;;;;70.17;33.40;;;;;;;4.69;82.14;100994.97;126383;1098;23862;-55
2020/12/17 05:35:02;;;;;;;66.60;32.53;;;;;;;4.67;82.14;100980.78;126363;1098;23488;-52
2020/12/17 05:37:35;;;;;;;71.13;32.33;;;;;;;4.64;82.12;100984.38;126192;1099;23463;-55
2020/12/17 05:40:04;;;;;;;65.40;30.73;;;;;;;4.61;82.05;100996.30;126203;1098;23325;-54
2020/12/17 05:42:35;;;;;;;68.95;30.55;;;;;;;4.61;81.97;100992.73;126438;1098;23382;-54
2020/12/17 05:45:24;;;;;;;63.85;28.38;;;;;;;4.59;82.14;100998.67;127096;1098;23587;-54
2020/12/17 05:48:14;;;;;;;66.93;30.73;;;;;;;4.57;82.03;100995.54;126633;1098;23376;-55
2020/12/17 05:50:57;;;;;;;68.90;30.62;;;;;;;4.60;82.15;100993.92;126451;1098;23318;-56
2020/12/17 05:53:28;;;;;;;68.73;32.13;;;;;;;4.63;82.20;100999.42;126508;1098;27828;-56
2020/12/17 05:56:03;;;;;;;59.70;26.77;;;;;;;4.63;81.97;100996.66;126510;1098;23398;-56
2020/12/17 05:58:43;;;;;;;65.90;31.33;;;;;;;4.63;82.12;100998.63;126439;1098;23318;-54
2020/12/17 06:01:14;;;;;;;64.35;29.50;;;;;;;4.60;81.90;101004.98;126215;1099;23548;-57
2020/12/17 06:03:44;;;;;;;65.75;28.77;;;;;;;4.60;81.89;101011.30;126423;1098;23454;-56
2020/12/17 06:06:16;;;;;;;63.53;29.47;;;;;;;4.61;82.02;101009.33;127404;1098;27941;-55
2020/12/17 06:08:51;;;;;;;61.57;27.27;;;;;;;4.63;82.04;101007.72;127351;1098;23392;-57
2020/12/17 06:11:32;;;;;;;69.63;32.00;;;;;;;4.67;81.99;101013.18;126441;1099;23340;-57
2020/12/17 06:14:02;;;;;;;66.77;32.57;;;;;;;4.68;81.85;101011.97;126184;1093;24717;-58
2020/12/17 06:16:32;;;;;;;59.95;29.23;;;;;;;4.68;81.86;101017.50;126916;1098;26778;-55
2020/12/17 06:19:03;;;;;;;64.80;31.00;;;;;;;4.71;81.86;101016.67;127018;1098;29665;-56
2020/12/17 06:21:34;;;;;;;67.30;30.03;;;;;;;4.69;81.84;101016.30;130248;1098;23190;-56
2020/12/17 06:24:03;;;;;;;64.20;28.95;;;;;;;4.67;81.87;101021.48;128457;1098;23325;-55
2020/12/17 06:26:40;;;;;;;62.87;29.43;;;;;;;4.66;81.69;101012.39;126984;1098;23466;-54
2020/12/17 06:29:18;;;;;;;52.87;24.33;;;;;;;4.66;81.86;101015.16;126303;1098;23382;-60
2020/12/17 06:32:16;;;;;;;64.00;28.00;;;;;;;4.67;81.80;101013.97;126352;1098;23936;-57
2020/12/17 06:34:50;;;;;;;55.53;27.50;;;;;;;4.67;81.81;101025.03;126163;1098;23470;-58
2020/12/17 06:37:20;;;;;;;56.63;26.63;;;;;;;4.67;81.70;101022.27;127426;1098;23376;-57
2020/12/17 06:39:51;;;;;;;59.08;27.13;;;;;;;4.68;81.84;101029.34;126039;1093;30191;-57
2020/12/17 06:42:37;;;;;;;59.10;25.60;;;;;;;4.67;81.52;101024.24;126240;1098;23337;-56
2020/12/17 06:45:25;;;;;;;58.20;25.80;;;;;;;4.63;81.28;101026.28;126399;1098;23317;-56
2020/12/17 06:47:55;;;;;;;53.90;22.93;;;;;;;4.61;81.28;101020.39;126421;1098;23379;-55
2020/12/17 06:50:30;;;;;;;58.27;26.40;;;;;;;4.59;81.39;101022.80;126227;1098;23562;-57
2020/12/17 06:53:10;;;;;;;53.27;26.53;;;;;;;4.58;81.63;101030.30;126309;1098;26331;-57
2020/12/17 06:55:39;;;;;;;;;;;;;;;4.58;81.66;101033.06;126510;1098;27768;-57
2020/12/17 06:58:16;;;;;;;51.07;22.90;;;;;;;4.56;81.66;101031.91;126147;1098;22184;-58
2020/12/17 07:00:46;;;;;;;57.73;25.83;;;;;;;4.53;81.41;101030.00;126124;1098;23322;-57
2020/12/17 07:03:42;;;;;;;61.37;26.37;;;;;;;4.50;81.40;101033.59;126253;1098;23348;-57
2020/12/17 07:06:19;;;;;;;67.73;31.90;;;;;;;4.48;81.21;101028.48;126199;1098;24898;-57
2020/12/17 07:08:50;;;;;;;60.90;29.15;;;;;;;4.47;81.49;101026.91;126695;1098;27935;-56
2020/12/17 07:11:42;;;;;;;62.27;31.87;;;;;;;4.49;81.74;101029.28;126282;1098;24988;-57
2020/12/17 07:14:19;;;;;;;61.93;30.33;;;;;;;4.52;81.57;101026.45;126254;1098;25099;-57
2020/12/17 07:16:54;;;;;;;69.87;31.50;;;;;;;4.53;81.64;101033.53;126396;1098;23449;-58
2020/12/17 07:19:29;;;;;;;71.70;34.47;;;;;;;4.54;81.31;101037.08;126484;1093;24919;-57
2020/12/17 07:22:04;;;;;;;69.00;34.03;;;;;;;4.50;81.36;101031.62;126091;1098;23379;-56
2020/12/17 07:24:37;;;;;;;71.10;35.00;;;;;;;4.46;81.19;101027.34;126277;1098;23392;-58
2020/12/17 07:27:09;;;;;;;69.70;33.40;;;;;;;4.42;81.23;101030.16;126265;1098;23371;-57
2020/12/17 07:29:51;;;;;;;72.70;33.33;;;;;;;4.39;80.97;101030.20;126409;1098;23384;-58
2020/12/17 07:32:31;;;;;;;67.13;31.70;;;;;;;4.36;81.31;101028.28;126189;1098;23376;-58
2020/12/17 07:35:15;;;;;;;65.47;30.83;;;;;;;4.31;80.89;101035.06;126166;1098;29977;-56
2020/12/17 07:37:46;;;;;;;62.87;30.20;;;;;;;4.25;81.10;101033.17;126184;1098;23438;-58
2020/12/17 07:40:25;;;;;;;62.03;30.33;;;;;;;4.19;80.86;101029.32;126109;1098;23492;-58
2020/12/17 07:43:13;;;;;;;56.53;25.57;;;;;;;4.14;80.92;101038.09;126286;1093;23379;-57
2020/12/17 07:45:57;;;;;;;62.03;26.67;;;;;;;4.10;81.05;101038.13;126607;1098;23392;-54
2020/12/17 07:48:40;;;;;;;49.77;23.50;;;;;;;4.07;80.75;101031.47;126563;1098;23372;-56
2020/12/17 07:51:25;;;;;;;58.93;26.13;;;;;;;4.03;80.91;101036.23;125982;1098;26820;-55
2020/12/17 07:53:55;;;;;;;59.83;28.37;;;;;;;3.98;80.81;101030.39;125960;1098;23601;-58
2020/12/17 07:56:25;;;;;;;59.58;27.00;;;;;;;3.95;80.98;101040.29;126051;1098;23318;-57
2020/12/17 07:58:55;;;;;;;67.23;31.00;;;;;;;3.94;81.17;101024.93;126156;1098;23392;-57
2020/12/17 08:01:25;;;;;;;62.88;28.30;;;;;;;3.96;80.88;101027.27;126273;1098;24848;-58
2020/12/17 08:03:55;;;;;;;80.62;33.33;;;;;;;3.94;81.00;101024.14;126047;1098;23324;-57
2020/12/17 08:06:26;;;;;;;102.37;40.77;;;;;;;3.94;80.87;101026.90;126660;1098;23588;-57
2020/12/17 08:09:04;;;;;;;86.33;38.73;;;;;;;3.92;81.23;101029.30;126105;1098;26811;-57
2020/12/17 08:11:34;;;;;;;90.20;39.50;;;;;;;3.90;80.99;101032.48;126081;1098;23379;-57
2020/12/17 08:14:05;;;;;;;76.20;33.70;;;;;;;3.92;80.96;101032.05;126176;1098;23424;-57
2020/12/17 08:16:36;;;;;;;70.63;34.43;;;;;;;3.92;81.02;101029.30;126000;1098;24832;-57
2020/12/17 08:19:06;;;;;;;69.70;34.03;;;;;;;3.92;81.14;101021.80;126059;1093;23379;-58
2020/12/17 08:21:37;;;;;;;75.08;32.65;;;;;;;3.93;81.33;101030.88;126241;1098;23336;-59
2020/12/17 08:24:10;;;;;;;78.77;34.60;;;;;;;3.92;81.26;101030.09;126482;1098;26597;-58
2020/12/17 08:26:40;;;;;;;72.23;33.40;;;;;;;3.90;80.98;101035.24;126137;1098;23466;-58
2020/12/17 08:29:10;;;;;;;66.80;31.97;;;;;;;3.89;81.25;101027.37;125922;1098;28066;-58
2020/12/17 08:31:39;;;;;;;71.97;33.33;;;;;;;3.90;81.18;101024.20;126812;1098;23325;-57
2020/12/17 08:34:11;;;;;;;72.53;34.10;;;;;;;3.88;81.26;101029.35;126081;1098;23435;-56
2020/12/17 08:36:40;;;;;;;78.20;33.37;;;;;;;3.87;81.20;101024.25;126178;1098;23324;-57
2020/12/17 08:39:18;;;;;;;72.57;31.07;;;;;;;3.86;81.20;101026.22;126208;1098;23467;-58
2020/12/17 08:41:50;;;;;;;70.60;31.53;;;;;;;3.83;81.00;101024.27;126460;1098;23500;-57
2020/12/17 08:44:23;;;;;;;61.43;29.03;;;;;;;3.80;81.17;101022.36;125975;1098;23432;-57
2020/12/17 08:46:58;;;;;;;75.23;27.10;;;;;;;3.80;81.00;101024.33;126043;1098;23359;-58
2020/12/17 08:49:29;;;;;;;63.55;27.10;;;;;;;3.78;80.92;101021.98;126071;1093;23390;-59
2020/12/17 08:52:00;;;;;;;60.35;26.75;;;;;;;3.80;80.84;101025.12;127057;1098;26395;-56
2020/12/17 08:54:32;;;;;;;61.57;25.17;;;;;;;3.80;81.28;101025.12;126476;1098;23333;-57
2020/12/17 08:57:03;;;;;;;53.07;23.57;;;;;;;3.81;81.07;101037.72;126448;1098;27402;-59
2020/12/17 08:59:38;;;;;;;55.27;23.33;;;;;;;3.79;80.82;101029.06;125984;1093;23333;-58
2020/12/17 09:02:09;;;;;;;58.78;24.50;;;;;;;3.77;80.81;101025.14;126222;1098;25225;-58
2020/12/17 09:04:53;;;;;;;61.27;26.50;;;;;;;3.78;81.01;101032.25;126024;1098;23533;-57
2020/12/17 09:07:26;;;;;;;54.17;24.23;;;;;;;3.77;81.01;101030.66;126096;1098;23342;-59
2020/12/17 09:10:09;;;;;;;59.90;27.47;;;;;;;3.80;81.14;101029.85;126146;1098;23335;-60
2020/12/17 09:12:38;;;;;;;54.43;24.27;;;;;;;3.81;81.07;101040.48;126573;1098;23338;-60
2020/12/17 09:15:10;;;;;;;56.33;26.10;;;;;;;3.85;81.03;101043.19;126081;1098;23355;-59
2020/12/17 09:17:44;;;;;;;59.63;25.97;;;;;;;3.89;81.02;101035.66;126127;1093;23403;-57
2020/12/17 09:20:18;;;;;;;47.65;21.10;;;;;;;3.89;80.86;101039.19;126109;1098;23530;-57
2020/12/17 09:22:48;;;;;;;54.00;22.40;;;;;;;3.88;80.90;101042.38;126296;1098;23324;-58
2020/12/17 09:25:28;;;;;;;65.73;25.00;;;;;;;3.88;80.54;101042.38;126230;1098;27821;-58
2020/12/17 09:27:58;;;;;;;53.08;22.87;;;;;;;3.90;80.87;101038.00;125992;1098;23589;-58
2020/12/17 09:30:33;;;;;;;58.05;24.27;;;;;;;3.94;81.04;101040.71;126051;1098;23390;-58
2020/12/17 09:33:04;;;;;;;52.77;23.40;;;;;;;3.95;81.26;101045.81;125888;1098;26786;-58
2020/12/17 09:35:36;;;;;;;56.03;23.00;;;;;;;3.99;81.13;101041.02;126070;1098;23496;-58
2020/12/17 09:38:07;;;;;;;50.10;21.17;;;;;;;4.03;80.79;101039.00;126009;1098;23327;-57
2020/12/17 09:40:40;;;;;;;45.25;19.35;;;;;;;4.03;80.94;101036.23;126110;1098;23330;-58
2020/12/17 09:43:11;;;;;;;43.13;17.03;;;;;;;4.03;80.87;101033.47;126027;1093;23536;-57
2020/12/17 09:45:43;;;;;;;43.80;17.75;;;;;;;4.03;80.56;101035.47;126080;1098;24241;-57
2020/12/17 09:48:18;;;;;;;48.20;18.30;;;;;;;4.02;80.58;101031.92;126024;1098;23640;-58
2020/12/17 09:50:56;;;;;;;43.27;18.07;;;;;;;4.04;80.65;101032.28;126137;1098;23532;-57
2020/12/17 09:53:25;;;;;;;47.97;19.00;;;;;;;4.06;80.73;101026.34;126037;1098;23325;-58
2020/12/17 09:55:55;;;;;;;44.40;19.13;;;;;;;4.07;80.76;101025.94;126026;1098;26757;-57
2020/12/17 09:58:25;;;;;;;44.80;19.85;;;;;;;4.08;80.70;101026.70;126261;1098;23360;-58
2020/12/17 10:00:55;;;;;;;38.13;14.07;;;;;;;4.08;80.46;101027.49;125881;1098;23349;-58
2020/12/17 10:03:25;;;;;;;42.00;16.93;;;;;;;4.10;80.70;101027.86;126336;1098;23817;-58
2020/12/17 10:05:55;;;;;;;40.13;15.93;;;;;;;4.12;80.78;101026.67;126137;1098;23604;-57
2020/12/17 10:08:24;;;;;;;45.85;17.23;;;;;;;4.16;80.73;101032.93;126136;1098;23321;-58
2020/12/17 10:10:54;;;;;;;39.00;16.80;;;;;;;4.16;80.71;101027.41;126378;1098;23325;-58
2020/12/17 10:13:23;;;;;;;41.98;17.02;;;;;;;4.19;80.67;101027.34;126082;1098;27765;-60
2020/12/17 10:15:53;;;;;;;41.17;18.30;;;;;;;4.20;80.52;101030.90;126140;1098;23544;-57
2020/12/17 10:18:23;;;;;;;42.60;18.25;;;;;;;4.23;80.67;101019.78;126126;1098;25299;-56
2020/12/17 10:20:52;;;;;;;46.70;18.80;;;;;;;4.24;80.52;101020.57;126434;1098;23496;-58
2020/12/17 10:23:22;;;;;;;39.75;16.90;;;;;;;4.25;80.61;101017.38;126607;1098;23444;-56
2020/12/17 10:25:51;;;;;;;34.10;13.03;;;;;;;4.27;80.47;101019.72;126051;1098;23390;-56
2020/12/17 10:28:20;;;;;;;39.63;18.27;;;;;;;4.30;80.51;101010.61;125802;1098;23392;-57
2020/12/17 10:30:50;;;;;;;42.20;18.00;;;;;;;4.33;80.48;101009.76;125934;1098;23379;-57
2020/12/17 10:33:20;;;;;;;40.05;16.57;;;;;;;4.34;80.31;101008.58;126203;1098;26917;-58
2020/12/17 10:35:51;;;;;;;44.57;17.80;;;;;;;4.35;80.56;101004.59;126026;1098;23379;-55
2020/12/17 10:38:20;;;;;;;40.08;14.65;;;;;;;4.38;80.16;101012.85;126080;1098;23798;-58
2020/12/17 10:40:50;;;;;;;36.55;14.85;;;;;;;4.40;80.41;101015.19;126027;1098;23394;-58
2020/12/17 10:43:19;;;;;;;37.33;14.80;;;;;;;4.44;80.22;101010.39;126360;1098;24969;-60
2020/12/17 10:45:50;;;;;;;27.77;12.18;;;;;;;4.45;79.91;101003.67;126090;1098;23458;-60
2020/12/17 10:48:20;;;;;;;33.78;15.50;;;;;;;4.46;80.21;101000.48;125980;1098;27771;-60
2020/12/17 10:50:52;;;;;;;38.15;15.88;;;;;;;4.49;80.25;101007.92;126099;1098;28101;-59
2020/12/17 10:53:23;;;;;;;41.97;16.97;;;;;;;4.53;80.47;101002.36;126232;1098;28482;-58
2020/12/17 10:55:54;;;;;;;39.43;15.97;;;;;;;4.57;80.30;100990.02;125884;1098;23512;-57
2020/12/17 10:58:25;;;;;;;36.25;14.45;;;;;;;4.58;79.96;100996.33;125949;1098;28286;-60
2020/12/17 11:01:01;;;;;;;36.17;14.27;;;;;;;4.60;79.97;100982.86;126043;1098;23399;-55
2020/12/17 11:03:33;;;;;;;35.45;14.35;;;;;;;4.62;79.89;100980.45;126093;1098;23325;-55
2020/12/17 11:06:03;;;;;;;43.73;18.03;;;;;;;4.61;80.00;100976.14;126127;1099;25097;-57
2020/12/17 11:08:33;;;;;;;;;;;;;;;4.62;79.99;100981.25;126081;1098;23360;-59
2020/12/17 11:11:05;;;;;;;38.40;16.80;;;;;;;4.60;79.75;100975.36;126094;1098;25798;-56
2020/12/17 11:13:35;;;;;;;34.53;15.17;;;;;;;4.61;79.88;100981.67;125998;1098;26433;-57
2020/12/17 11:16:05;;;;;;;37.50;15.58;;;;;;;4.61;79.83;100973.38;126348;1099;26360;-57
2020/12/17 11:18:35;;;;;;;45.17;17.35;;;;;;;4.64;79.65;100975.29;126313;1098;27771;-57
2020/12/17 11:21:04;;;;;;;40.47;16.80;;;;;;;4.62;80.09;100970.19;126082;1098;23504;-55
2020/12/17 11:23:35;;;;;;;37.35;15.20;;;;;;;4.65;79.72;100979.63;126092;1098;23480;-59
2020/12/17 11:26:05;;;;;;;36.00;15.35;;;;;;;4.65;79.76;100974.09;126143;1098;23343;-57
2020/12/17 11:28:35;;;;;;;36.10;16.90;;;;;;;4.67;79.82;100971.69;126065;1098;23898;-59
2020/12/17 11:31:06;;;;;;;35.07;15.07;;;;;;;4.68;79.90;100962.18;126636;1093;25098;-59